sensor_id;sensor_type;location;lat;lon;timestamp;temperature;humidity
15765;DHT22;7983;50.744;7.086;2022-11-15T00:02:11;12.30;99.90
15765;DHT22;7983;50.744;7.086;2022-11-15T00:04:37;12.30;99.90
15765;DHT22;7983;50.744;7.086;2022-11-15T00:07:07;12.30;99.90
15765;DHT22;7983;50.744;7.086;2022-11-15T00:09:35;12.30;99.90
15765;DHT22;7983;50.744;7.086;2022-11-15T00:12:03;12.40;99.90
15765;DHT22;7983;50.744;7.086;2022-11-15T00:14:31;12.40;99.90
15765;DHT22;7983;50.744;7.086;2022-11-15T00:16:57;12.40;99.90
15765;DHT22;7983;50.744;7.086;2022-11-15T00:19:24;12.40;99.90
15765;DHT22;7983;50.744;7.086;2022-11-15T00:21:55;12.40;99.90
15765;DHT22;7983;50.744;7.086;2022-11-15T00:24:22;12.30;99.90
15765;DHT22;7983;50.744;7.086;2022-11-15T00:26:48;12.30;99.90
15765;DHT22;7983;50.744;7.086;2022-11-15T00:29:16;12.40;99.90
15765;DHT22;7983;50.744;7.086;2022-11-15T00:31:44;12.40;99.90
15765;DHT22;7983;50.744;7.086;2022-11-15T00:34:10;12.40;99.90
15765;DHT22;7983;50.744;7.086;2022-11-15T00:36:39;12.40;99.90
15765;DHT22;7983;50.744;7.086;2022-11-15T00:39:09;12.40;99.90
15765;DHT22;7983;50.744;7.086;2022-11-15T00:41:37;12.40;99.90
15765;DHT22;7983;50.744;7.086;2022-11-15T00:44:03;12.50;99.90
15765;DHT22;7983;50.744;7.086;2022-11-15T00:46:28;12.50;99.90
15765;DHT22;7983;50.744;7.086;2022-11-15T00:48:54;12.50;99.90
15765;DHT22;7983;50.744;7.086;2022-11-15T00:51:22;12.50;99.90
15765;DHT22;7983;50.744;7.086;2022-11-15T00:53:47;12.50;99.90
15765;DHT22;7983;50.744;7.086;2022-11-15T00:56:13;12.50;99.90
15765;DHT22;7983;50.744;7.086;2022-11-15T00:58:38;12.50;99.90
15765;DHT22;7983;50.744;7.086;2022-11-15T01:01:14;12.50;99.90
15765;DHT22;7983;50.744;7.086;2022-11-15T01:03:42;12.60;99.90
15765;DHT22;7983;50.744;7.086;2022-11-15T01:06:08;12.60;99.90
15765;DHT22;7983;50.744;7.086;2022-11-15T01:08:34;12.60;99.90
15765;DHT22;7983;50.744;7.086;2022-11-15T01:11:05;12.70;99.90
15765;DHT22;7983;50.744;7.086;2022-11-15T01:13:35;12.70;99.90
15765;DHT22;7983;50.744;7.086;2022-11-15T01:16:12;12.70;99.90
15765;DHT22;7983;50.744;7.086;2022-11-15T01:18:42;12.80;99.90
15765;DHT22;7983;50.744;7.086;2022-11-15T01:21:18;12.80;99.90
15765;DHT22;7983;50.744;7.086;2022-11-15T01:23:46;12.80;99.90
15765;DHT22;7983;50.744;7.086;2022-11-15T01:26:14;12.90;99.90
15765;DHT22;7983;50.744;7.086;2022-11-15T01:28:41;12.90;99.90
15765;DHT22;7983;50.744;7.086;2022-11-15T01:31:13;13.00;99.90
15765;DHT22;7983;50.744;7.086;2022-11-15T01:33:39;13.00;99.90
15765;DHT22;7983;50.744;7.086;2022-11-15T01:36:07;13.00;99.90
15765;DHT22;7983;50.744;7.086;2022-11-15T01:38:34;13.00;99.90
15765;DHT22;7983;50.744;7.086;2022-11-15T01:41:00;13.10;99.90
15765;DHT22;7983;50.744;7.086;2022-11-15T01:46:23;13.10;99.90
15765;DHT22;7983;50.744;7.086;2022-11-15T01:48:51;13.10;99.90
15765;DHT22;7983;50.744;7.086;2022-11-15T01:51:21;13.10;99.90
15765;DHT22;7983;50.744;7.086;2022-11-15T01:53:49;13.10;99.90
15765;DHT22;7983;50.744;7.086;2022-11-15T01:56:19;13.10;99.90
15765;DHT22;7983;50.744;7.086;2022-11-15T01:58:47;13.10;99.90
15765;DHT22;7983;50.744;7.086;2022-11-15T02:01:13;13.10;99.90
15765;DHT22;7983;50.744;7.086;2022-11-15T02:06:23;13.20;99.90
15765;DHT22;7983;50.744;7.086;2022-11-15T02:08:50;13.20;99.90
15765;DHT22;7983;50.744;7.086;2022-11-15T02:11:16;13.20;99.90
15765;DHT22;7983;50.744;7.086;2022-11-15T02:13:44;13.30;99.90
15765;DHT22;7983;50.744;7.086;2022-11-15T02:16:26;13.20;99.90
15765;DHT22;7983;50.744;7.086;2022-11-15T02:22:22;13.30;99.90
15765;DHT22;7983;50.744;7.086;2022-11-15T02:30:47;13.40;99.90
15765;DHT22;7983;50.744;7.086;2022-11-15T02:33:35;13.40;99.90
15765;DHT22;7983;50.744;7.086;2022-11-15T02:36:18;13.40;99.90
15765;DHT22;7983;50.744;7.086;2022-11-15T02:38:58;13.40;99.90
15765;DHT22;7983;50.744;7.086;2022-11-15T02:44:12;13.50;99.90
15765;DHT22;7983;50.744;7.086;2022-11-15T02:47:01;13.50;99.90
15765;DHT22;7983;50.744;7.086;2022-11-15T02:52:13;13.50;99.90
15765;DHT22;7983;50.744;7.086;2022-11-15T02:54:42;13.50;99.90
15765;DHT22;7983;50.744;7.086;2022-11-15T02:57:12;13.50;99.90
15765;DHT22;7983;50.744;7.086;2022-11-15T03:05:17;13.50;99.90
15765;DHT22;7983;50.744;7.086;2022-11-15T03:07:50;13.60;99.90
15765;DHT22;7983;50.744;7.086;2022-11-15T03:18:40;13.60;99.90
15765;DHT22;7983;50.744;7.086;2022-11-15T03:21:12;13.60;99.90
15765;DHT22;7983;50.744;7.086;2022-11-15T03:23:40;13.60;99.90
15765;DHT22;7983;50.744;7.086;2022-11-15T03:26:11;13.60;99.90
15765;DHT22;7983;50.744;7.086;2022-11-15T03:28:50;13.60;99.90
15765;DHT22;7983;50.744;7.086;2022-11-15T03:31:23;13.60;99.90
15765;DHT22;7983;50.744;7.086;2022-11-15T03:34:37;13.70;99.90
15765;DHT22;7983;50.744;7.086;2022-11-15T03:37:00;13.70;99.90
15765;DHT22;7983;50.744;7.086;2022-11-15T03:39:27;13.70;99.90
15765;DHT22;7983;50.744;7.086;2022-11-15T03:42:16;13.70;99.90
15765;DHT22;7983;50.744;7.086;2022-11-15T03:44:46;13.70;99.90
15765;DHT22;7983;50.744;7.086;2022-11-15T03:47:27;13.70;99.90
15765;DHT22;7983;50.744;7.086;2022-11-15T03:50:05;13.80;99.90
15765;DHT22;7983;50.744;7.086;2022-11-15T03:52:33;13.80;99.90
15765;DHT22;7983;50.744;7.086;2022-11-15T03:55:01;13.80;99.90
15765;DHT22;7983;50.744;7.086;2022-11-15T03:57:27;13.80;99.90
15765;DHT22;7983;50.744;7.086;2022-11-15T03:59:52;13.80;99.90
15765;DHT22;7983;50.744;7.086;2022-11-15T04:02:18;13.90;99.90
15765;DHT22;7983;50.744;7.086;2022-11-15T04:04:44;13.90;99.90
15765;DHT22;7983;50.744;7.086;2022-11-15T04:07:10;13.90;99.90
15765;DHT22;7983;50.744;7.086;2022-11-15T04:09:35;13.90;99.90
15765;DHT22;7983;50.744;7.086;2022-11-15T04:12:23;13.90;99.90
15765;DHT22;7983;50.744;7.086;2022-11-15T04:15:10;13.90;99.90
15765;DHT22;7983;50.744;7.086;2022-11-15T04:17:47;13.80;99.90
15765;DHT22;7983;50.744;7.086;2022-11-15T04:20:28;13.80;99.90
15765;DHT22;7983;50.744;7.086;2022-11-15T04:26:01;13.70;99.90
15765;DHT22;7983;50.744;7.086;2022-11-15T04:28:30;13.70;99.90
15765;DHT22;7983;50.744;7.086;2022-11-15T04:30:55;13.70;99.90
15765;DHT22;7983;50.744;7.086;2022-11-15T04:33:21;13.60;99.90
15765;DHT22;7983;50.744;7.086;2022-11-15T04:35:54;13.50;99.90
15765;DHT22;7983;50.744;7.086;2022-11-15T04:38:48;13.50;99.90
15765;DHT22;7983;50.744;7.086;2022-11-15T04:41:14;13.50;99.90
15765;DHT22;7983;50.744;7.086;2022-11-15T04:43:42;13.40;99.90
15765;DHT22;7983;50.744;7.086;2022-11-15T04:46:10;13.40;99.90
15765;DHT22;7983;50.744;7.086;2022-11-15T04:48:40;13.30;99.90
15765;DHT22;7983;50.744;7.086;2022-11-15T04:51:06;13.30;99.90
15765;DHT22;7983;50.744;7.086;2022-11-15T04:53:32;13.30;99.90
15765;DHT22;7983;50.744;7.086;2022-11-15T04:55:57;13.30;99.90
15765;DHT22;7983;50.744;7.086;2022-11-15T04:58:25;13.30;99.90
15765;DHT22;7983;50.744;7.086;2022-11-15T05:00:51;13.30;99.90
15765;DHT22;7983;50.744;7.086;2022-11-15T05:03:17;13.30;99.90
15765;DHT22;7983;50.744;7.086;2022-11-15T05:06:01;13.40;99.90
15765;DHT22;7983;50.744;7.086;2022-11-15T05:08:27;13.30;99.90
15765;DHT22;7983;50.744;7.086;2022-11-15T05:10:55;13.40;99.90
15765;DHT22;7983;50.744;7.086;2022-11-15T05:13:20;13.40;99.90
15765;DHT22;7983;50.744;7.086;2022-11-15T05:15:48;13.40;99.90
15765;DHT22;7983;50.744;7.086;2022-11-15T05:18:14;13.40;99.90
15765;DHT22;7983;50.744;7.086;2022-11-15T05:20:40;13.40;99.90
15765;DHT22;7983;50.744;7.086;2022-11-15T05:23:05;13.40;99.90
15765;DHT22;7983;50.744;7.086;2022-11-15T05:25:35;13.40;99.90
15765;DHT22;7983;50.744;7.086;2022-11-15T05:28:01;13.40;99.90
15765;DHT22;7983;50.744;7.086;2022-11-15T05:30:27;13.30;99.90
15765;DHT22;7983;50.744;7.086;2022-11-15T05:32:53;13.30;99.90
15765;DHT22;7983;50.744;7.086;2022-11-15T05:35:30;13.30;99.90
15765;DHT22;7983;50.744;7.086;2022-11-15T05:37:57;13.20;99.90
15765;DHT22;7983;50.744;7.086;2022-11-15T05:40:23;13.20;99.90
15765;DHT22;7983;50.744;7.086;2022-11-15T05:42:49;13.20;99.90
15765;DHT22;7983;50.744;7.086;2022-11-15T05:45:16;13.20;99.90
15765;DHT22;7983;50.744;7.086;2022-11-15T05:47:42;13.10;99.90
15765;DHT22;7983;50.744;7.086;2022-11-15T05:50:12;13.10;99.90
15765;DHT22;7983;50.744;7.086;2022-11-15T05:52:40;13.10;99.90
15765;DHT22;7983;50.744;7.086;2022-11-15T05:55:09;13.10;99.90
15765;DHT22;7983;50.744;7.086;2022-11-15T05:57:35;13.10;99.90
15765;DHT22;7983;50.744;7.086;2022-11-15T06:00:01;13.00;99.90
15765;DHT22;7983;50.744;7.086;2022-11-15T06:02:27;13.00;99.90
15765;DHT22;7983;50.744;7.086;2022-11-15T06:04:53;13.00;99.90
15765;DHT22;7983;50.744;7.086;2022-11-15T06:07:22;13.00;99.90
15765;DHT22;7983;50.744;7.086;2022-11-15T06:09:47;13.00;99.90
15765;DHT22;7983;50.744;7.086;2022-11-15T06:12:15;12.90;99.90
15765;DHT22;7983;50.744;7.086;2022-11-15T06:14:43;13.00;99.90
15765;DHT22;7983;50.744;7.086;2022-11-15T06:17:11;12.90;99.90
15765;DHT22;7983;50.744;7.086;2022-11-15T06:19:36;12.90;99.90
15765;DHT22;7983;50.744;7.086;2022-11-15T06:22:02;12.90;99.90
15765;DHT22;7983;50.744;7.086;2022-11-15T06:24:30;12.80;99.90
15765;DHT22;7983;50.744;7.086;2022-11-15T06:27:01;12.80;99.90
15765;DHT22;7983;50.744;7.086;2022-11-15T06:29:27;12.80;99.90
15765;DHT22;7983;50.744;7.086;2022-11-15T06:31:52;12.80;99.90
15765;DHT22;7983;50.744;7.086;2022-11-15T06:34:20;12.80;99.90
15765;DHT22;7983;50.744;7.086;2022-11-15T06:36:51;12.80;99.90
15765;DHT22;7983;50.744;7.086;2022-11-15T06:39:19;12.80;99.90
15765;DHT22;7983;50.744;7.086;2022-11-15T06:41:45;12.80;99.90
15765;DHT22;7983;50.744;7.086;2022-11-15T06:44:12;12.70;99.90
15765;DHT22;7983;50.744;7.086;2022-11-15T06:46:41;12.80;99.90
15765;DHT22;7983;50.744;7.086;2022-11-15T06:49:09;12.70;99.90
15765;DHT22;7983;50.744;7.086;2022-11-15T06:51:37;12.70;99.90
15765;DHT22;7983;50.744;7.086;2022-11-15T06:54:03;12.70;99.90
15765;DHT22;7983;50.744;7.086;2022-11-15T06:56:29;12.70;99.90
15765;DHT22;7983;50.744;7.086;2022-11-15T06:58:57;12.70;99.90
15765;DHT22;7983;50.744;7.086;2022-11-15T07:01:25;12.70;99.90
15765;DHT22;7983;50.744;7.086;2022-11-15T07:03:50;12.70;99.90
15765;DHT22;7983;50.744;7.086;2022-11-15T07:06:16;12.60;99.90
15765;DHT22;7983;50.744;7.086;2022-11-15T07:08:42;12.60;99.90
15765;DHT22;7983;50.744;7.086;2022-11-15T07:11:08;12.60;99.90
15765;DHT22;7983;50.744;7.086;2022-11-15T07:13:35;12.70;99.90
15765;DHT22;7983;50.744;7.086;2022-11-15T07:16:05;12.60;99.90
15765;DHT22;7983;50.744;7.086;2022-11-15T07:18:33;12.60;99.90
15765;DHT22;7983;50.744;7.086;2022-11-15T07:21:03;12.60;99.90
15765;DHT22;7983;50.744;7.086;2022-11-15T07:23:32;12.60;99.90
15765;DHT22;7983;50.744;7.086;2022-11-15T07:25:58;12.60;99.90
15765;DHT22;7983;50.744;7.086;2022-11-15T07:28:25;12.60;99.90
15765;DHT22;7983;50.744;7.086;2022-11-15T07:30:53;12.60;99.90
15765;DHT22;7983;50.744;7.086;2022-11-15T07:33:24;12.60;99.90
15765;DHT22;7983;50.744;7.086;2022-11-15T07:35:49;12.60;99.90
15765;DHT22;7983;50.744;7.086;2022-11-15T07:38:18;12.70;99.90
15765;DHT22;7983;50.744;7.086;2022-11-15T07:40:47;12.70;99.90
15765;DHT22;7983;50.744;7.086;2022-11-15T07:43:13;12.70;99.90
15765;DHT22;7983;50.744;7.086;2022-11-15T07:45:45;12.70;99.90
15765;DHT22;7983;50.744;7.086;2022-11-15T07:48:11;12.70;99.90
15765;DHT22;7983;50.744;7.086;2022-11-15T07:50:43;12.70;99.90
15765;DHT22;7983;50.744;7.086;2022-11-15T07:53:09;12.70;99.90
15765;DHT22;7983;50.744;7.086;2022-11-15T07:55:39;12.70;99.90
15765;DHT22;7983;50.744;7.086;2022-11-15T07:58:09;12.80;99.90
15765;DHT22;7983;50.744;7.086;2022-11-15T08:00:38;12.80;99.90
15765;DHT22;7983;50.744;7.086;2022-11-15T08:03:15;12.80;99.90
15765;DHT22;7983;50.744;7.086;2022-11-15T08:05:42;12.80;99.90
15765;DHT22;7983;50.744;7.086;2022-11-15T08:08:09;12.80;99.90
15765;DHT22;7983;50.744;7.086;2022-11-15T08:10:36;12.90;99.90
15765;DHT22;7983;50.744;7.086;2022-11-15T08:13:08;12.90;99.90
15765;DHT22;7983;50.744;7.086;2022-11-15T08:15:37;12.90;99.90
15765;DHT22;7983;50.744;7.086;2022-11-15T08:18:09;12.90;99.90
15765;DHT22;7983;50.744;7.086;2022-11-15T08:20:35;12.90;99.90
15765;DHT22;7983;50.744;7.086;2022-11-15T08:23:02;13.00;99.90
15765;DHT22;7983;50.744;7.086;2022-11-15T08:25:33;13.00;99.90
15765;DHT22;7983;50.744;7.086;2022-11-15T08:28:01;13.00;99.90
15765;DHT22;7983;50.744;7.086;2022-11-15T08:30:30;13.00;99.90
15765;DHT22;7983;50.744;7.086;2022-11-15T08:32:57;13.10;99.90
15765;DHT22;7983;50.744;7.086;2022-11-15T08:35:26;13.10;99.90
15765;DHT22;7983;50.744;7.086;2022-11-15T08:37:52;13.10;99.90
15765;DHT22;7983;50.744;7.086;2022-11-15T08:40:18;13.10;99.90
15765;DHT22;7983;50.744;7.086;2022-11-15T08:42:46;13.20;99.90
15765;DHT22;7983;50.744;7.086;2022-11-15T08:45:15;13.30;99.90
15765;DHT22;7983;50.744;7.086;2022-11-15T08:47:45;13.30;99.90
15765;DHT22;7983;50.744;7.086;2022-11-15T08:50:13;13.40;99.90
15765;DHT22;7983;50.744;7.086;2022-11-15T08:52:38;13.40;99.90
15765;DHT22;7983;50.744;7.086;2022-11-15T08:55:04;13.50;99.90
15765;DHT22;7983;50.744;7.086;2022-11-15T08:57:30;13.60;99.90
15765;DHT22;7983;50.744;7.086;2022-11-15T08:59:56;13.70;99.90
15765;DHT22;7983;50.744;7.086;2022-11-15T09:02:24;13.90;99.90
15765;DHT22;7983;50.744;7.086;2022-11-15T09:04:50;14.10;99.90
15765;DHT22;7983;50.744;7.086;2022-11-15T09:07:16;14.30;99.90
15765;DHT22;7983;50.744;7.086;2022-11-15T09:09:42;14.50;99.90
15765;DHT22;7983;50.744;7.086;2022-11-15T09:12:08;14.70;99.90
15765;DHT22;7983;50.744;7.086;2022-11-15T09:14:34;14.90;99.90
15765;DHT22;7983;50.744;7.086;2022-11-15T09:17:06;15.00;99.90
15765;DHT22;7983;50.744;7.086;2022-11-15T09:19:32;15.10;99.90
15765;DHT22;7983;50.744;7.086;2022-11-15T09:21:58;15.10;99.90
15765;DHT22;7983;50.744;7.086;2022-11-15T09:24:23;15.20;99.90
15765;DHT22;7983;50.744;7.086;2022-11-15T09:26:51;15.30;99.90
15765;DHT22;7983;50.744;7.086;2022-11-15T09:29:19;15.40;99.90
15765;DHT22;7983;50.744;7.086;2022-11-15T09:31:45;15.60;99.90
15765;DHT22;7983;50.744;7.086;2022-11-15T09:34:13;15.70;99.90
15765;DHT22;7983;50.744;7.086;2022-11-15T09:36:41;15.80;99.90
15765;DHT22;7983;50.744;7.086;2022-11-15T09:39:06;16.00;99.90
15765;DHT22;7983;50.744;7.086;2022-11-15T09:47:02;16.10;99.90
15765;DHT22;7983;50.744;7.086;2022-11-15T09:49:31;16.10;99.90
15765;DHT22;7983;50.744;7.086;2022-11-15T09:51:57;16.00;99.90
15765;DHT22;7983;50.744;7.086;2022-11-15T09:54:33;16.10;99.90
15765;DHT22;7983;50.744;7.086;2022-11-15T10:00:06;16.20;99.90
15765;DHT22;7983;50.744;7.086;2022-11-15T10:05:16;16.20;99.90
15765;DHT22;7983;50.744;7.086;2022-11-15T10:10:44;16.20;99.90
15765;DHT22;7983;50.744;7.086;2022-11-15T10:13:20;16.20;99.90
15765;DHT22;7983;50.744;7.086;2022-11-15T10:15:48;16.20;99.90
15765;DHT22;7983;50.744;7.086;2022-11-15T10:18:35;16.20;99.90
15765;DHT22;7983;50.744;7.086;2022-11-15T10:23:42;16.30;99.90
15765;DHT22;7983;50.744;7.086;2022-11-15T10:26:16;16.40;99.90
15765;DHT22;7983;50.744;7.086;2022-11-15T10:28:42;16.50;99.90
15765;DHT22;7983;50.744;7.086;2022-11-15T10:31:27;16.60;99.90
15765;DHT22;7983;50.744;7.086;2022-11-15T10:34:12;16.60;99.90
15765;DHT22;7983;50.744;7.086;2022-11-15T10:36:47;16.70;99.90
15765;DHT22;7983;50.744;7.086;2022-11-15T10:39:19;16.80;99.90
15765;DHT22;7983;50.744;7.086;2022-11-15T10:41:44;16.80;99.90
15765;DHT22;7983;50.744;7.086;2022-11-15T10:49:28;17.00;99.90
15765;DHT22;7983;50.744;7.086;2022-11-15T10:52:18;17.10;99.90
15765;DHT22;7983;50.744;7.086;2022-11-15T10:57:36;17.00;99.90
15765;DHT22;7983;50.744;7.086;2022-11-15T11:00:26;17.00;99.90
15765;DHT22;7983;50.744;7.086;2022-11-15T11:08:05;17.20;99.90
15765;DHT22;7983;50.744;7.086;2022-11-15T11:10:31;17.20;99.90
15765;DHT22;7983;50.744;7.086;2022-11-15T11:13:20;17.30;99.90
15765;DHT22;7983;50.744;7.086;2022-11-15T11:15:53;17.40;99.90
15765;DHT22;7983;50.744;7.086;2022-11-15T11:18:55;17.40;99.90
15765;DHT22;7983;50.744;7.086;2022-11-15T11:21:38;17.40;99.90
15765;DHT22;7983;50.744;7.086;2022-11-15T11:27:09;17.40;99.90
15765;DHT22;7983;50.744;7.086;2022-11-15T11:29:43;17.50;99.90
15765;DHT22;7983;50.744;7.086;2022-11-15T11:35:06;17.60;99.90
15765;DHT22;7983;50.744;7.086;2022-11-15T11:37:44;17.60;99.90
15765;DHT22;7983;50.744;7.086;2022-11-15T11:48:12;18.10;99.90
15765;DHT22;7983;50.744;7.086;2022-11-15T11:50:39;18.20;99.90
15765;DHT22;7983;50.744;7.086;2022-11-15T11:53:25;18.30;99.90
15765;DHT22;7983;50.744;7.086;2022-11-15T11:55:54;18.40;99.90
15765;DHT22;7983;50.744;7.086;2022-11-15T11:58:37;18.60;99.90
15765;DHT22;7983;50.744;7.086;2022-11-15T12:01:34;18.70;99.90
15765;DHT22;7983;50.744;7.086;2022-11-15T12:04:27;18.80;99.90
15765;DHT22;7983;50.744;7.086;2022-11-15T12:07:01;18.70;99.90
15765;DHT22;7983;50.744;7.086;2022-11-15T12:09:42;18.70;99.90
15765;DHT22;7983;50.744;7.086;2022-11-15T12:17:37;18.50;99.90
15765;DHT22;7983;50.744;7.086;2022-11-15T12:20:18;18.40;99.90
15765;DHT22;7983;50.744;7.086;2022-11-15T12:22:47;18.40;99.90
15765;DHT22;7983;50.744;7.086;2022-11-15T12:25:19;18.30;99.90
15765;DHT22;7983;50.744;7.086;2022-11-15T12:28:37;18.20;99.90
15765;DHT22;7983;50.744;7.086;2022-11-15T12:30:54;18.00;99.90
15765;DHT22;7983;50.744;7.086;2022-11-15T12:33:34;17.90;99.90
15765;DHT22;7983;50.744;7.086;2022-11-15T12:38:58;17.60;99.90
15765;DHT22;7983;50.744;7.086;2022-11-15T12:41:33;17.50;99.90
15765;DHT22;7983;50.744;7.086;2022-11-15T12:44:00;17.40;99.90
15765;DHT22;7983;50.744;7.086;2022-11-15T12:48:59;17.20;99.90
15765;DHT22;7983;50.744;7.086;2022-11-15T13:04:42;17.00;99.90
15765;DHT22;7983;50.744;7.086;2022-11-15T13:10:01;17.00;99.90
15765;DHT22;7983;50.744;7.086;2022-11-15T13:15:30;17.00;99.90
15765;DHT22;7983;50.744;7.086;2022-11-15T13:17:55;17.00;99.90
15765;DHT22;7983;50.744;7.086;2022-11-15T13:20:30;17.00;99.90
15765;DHT22;7983;50.744;7.086;2022-11-15T13:23:01;17.00;99.90
15765;DHT22;7983;50.744;7.086;2022-11-15T13:28:03;16.80;99.90
15765;DHT22;7983;50.744;7.086;2022-11-15T13:30:35;16.80;99.90
15765;DHT22;7983;50.744;7.086;2022-11-15T13:33:14;16.70;99.90
15765;DHT22;7983;50.744;7.086;2022-11-15T13:35:45;16.70;99.90
15765;DHT22;7983;50.744;7.086;2022-11-15T13:38:25;16.60;99.90
15765;DHT22;7983;50.744;7.086;2022-11-15T13:40:56;16.60;99.90
15765;DHT22;7983;50.744;7.086;2022-11-15T13:48:40;16.60;99.90
15765;DHT22;7983;50.744;7.086;2022-11-15T13:51:36;16.60;99.90
15765;DHT22;7983;50.744;7.086;2022-11-15T13:56:49;16.60;99.90
15765;DHT22;7983;50.744;7.086;2022-11-15T13:59:26;16.50;99.90
15765;DHT22;7983;50.744;7.086;2022-11-15T14:01:56;16.50;99.90
15765;DHT22;7983;50.744;7.086;2022-11-15T14:04:25;16.50;99.90
15765;DHT22;7983;50.744;7.086;2022-11-15T14:06:56;16.50;99.90
15765;DHT22;7983;50.744;7.086;2022-11-15T14:11:58;16.50;99.90
15765;DHT22;7983;50.744;7.086;2022-11-15T14:14:28;16.50;99.90
15765;DHT22;7983;50.744;7.086;2022-11-15T14:16:58;16.50;99.90
15765;DHT22;7983;50.744;7.086;2022-11-15T14:22:13;16.50;99.90
15765;DHT22;7983;50.744;7.086;2022-11-15T14:24:44;16.50;99.90
15765;DHT22;7983;50.744;7.086;2022-11-15T14:27:27;16.50;99.90
15765;DHT22;7983;50.744;7.086;2022-11-15T14:29:56;16.60;99.90
15765;DHT22;7983;50.744;7.086;2022-11-15T14:32:27;16.50;99.90
15765;DHT22;7983;50.744;7.086;2022-11-15T14:34:58;16.50;99.90
15765;DHT22;7983;50.744;7.086;2022-11-15T14:37:27;16.50;99.90
15765;DHT22;7983;50.744;7.086;2022-11-15T14:39:56;16.50;99.90
15765;DHT22;7983;50.744;7.086;2022-11-15T14:42:23;16.50;99.90
15765;DHT22;7983;50.744;7.086;2022-11-15T14:44:51;16.50;99.90
15765;DHT22;7983;50.744;7.086;2022-11-15T14:47:17;16.40;99.90
15765;DHT22;7983;50.744;7.086;2022-11-15T14:49:44;16.50;99.90
15765;DHT22;7983;50.744;7.086;2022-11-15T14:52:29;16.40;99.90
15765;DHT22;7983;50.744;7.086;2022-11-15T14:54:56;16.40;99.90
15765;DHT22;7983;50.744;7.086;2022-11-15T14:57:23;16.40;99.90
15765;DHT22;7983;50.744;7.086;2022-11-15T14:59:51;16.40;99.90
15765;DHT22;7983;50.744;7.086;2022-11-15T15:02:25;16.40;99.90
15765;DHT22;7983;50.744;7.086;2022-11-15T15:04:51;16.40;99.90
15765;DHT22;7983;50.744;7.086;2022-11-15T15:07:20;16.30;99.90
15765;DHT22;7983;50.744;7.086;2022-11-15T15:09:45;16.30;99.90
15765;DHT22;7983;50.744;7.086;2022-11-15T15:14:42;16.30;99.90
15765;DHT22;7983;50.744;7.086;2022-11-15T15:17:07;16.30;99.90
15765;DHT22;7983;50.744;7.086;2022-11-15T15:19:33;16.30;99.90
15765;DHT22;7983;50.744;7.086;2022-11-15T15:22:01;16.20;99.90
15765;DHT22;7983;50.744;7.086;2022-11-15T15:24:29;16.20;99.90
15765;DHT22;7983;50.744;7.086;2022-11-15T15:26:55;16.20;99.90
15765;DHT22;7983;50.744;7.086;2022-11-15T15:29:20;16.20;99.90
15765;DHT22;7983;50.744;7.086;2022-11-15T15:31:46;16.10;99.90
15765;DHT22;7983;50.744;7.086;2022-11-15T15:34:12;16.10;99.90
15765;DHT22;7983;50.744;7.086;2022-11-15T15:36:38;16.10;99.90
15765;DHT22;7983;50.744;7.086;2022-11-15T15:39:07;16.10;99.90
15765;DHT22;7983;50.744;7.086;2022-11-15T15:41:33;16.00;99.90
15765;DHT22;7983;50.744;7.086;2022-11-15T15:43:59;16.00;99.90
15765;DHT22;7983;50.744;7.086;2022-11-15T15:46:32;16.00;99.90
15765;DHT22;7983;50.744;7.086;2022-11-15T15:48:59;16.00;99.90
15765;DHT22;7983;50.744;7.086;2022-11-15T15:51:26;15.90;99.90
15765;DHT22;7983;50.744;7.086;2022-11-15T15:53:52;15.90;99.90
15765;DHT22;7983;50.744;7.086;2022-11-15T15:56:22;15.90;99.90
15765;DHT22;7983;50.744;7.086;2022-11-15T15:58:47;15.90;99.90
15765;DHT22;7983;50.744;7.086;2022-11-15T16:01:13;15.80;99.90
15765;DHT22;7983;50.744;7.086;2022-11-15T16:03:41;15.80;99.90
15765;DHT22;7983;50.744;7.086;2022-11-15T16:06:37;15.80;99.90
15765;DHT22;7983;50.744;7.086;2022-11-15T16:09:08;15.80;99.90
15765;DHT22;7983;50.744;7.086;2022-11-15T16:11:33;15.80;99.90
15765;DHT22;7983;50.744;7.086;2022-11-15T16:13:59;15.70;99.90
15765;DHT22;7983;50.744;7.086;2022-11-15T16:16:27;15.70;99.90
15765;DHT22;7983;50.744;7.086;2022-11-15T16:18:57;15.70;99.90
15765;DHT22;7983;50.744;7.086;2022-11-15T16:21:23;15.70;99.90
15765;DHT22;7983;50.744;7.086;2022-11-15T16:23:49;15.70;99.90
15765;DHT22;7983;50.744;7.086;2022-11-15T16:26:26;15.70;99.90
15765;DHT22;7983;50.744;7.086;2022-11-15T16:28:54;15.70;99.90
15765;DHT22;7983;50.744;7.086;2022-11-15T16:31:20;15.70;99.90
15765;DHT22;7983;50.744;7.086;2022-11-15T16:33:49;15.60;99.90
15765;DHT22;7983;50.744;7.086;2022-11-15T16:38:49;15.60;99.90
15765;DHT22;7983;50.744;7.086;2022-11-15T16:41:15;15.60;99.90
15765;DHT22;7983;50.744;7.086;2022-11-15T16:43:45;15.60;99.90
15765;DHT22;7983;50.744;7.086;2022-11-15T16:46:25;15.60;99.90
15765;DHT22;7983;50.744;7.086;2022-11-15T16:48:53;15.60;99.90
15765;DHT22;7983;50.744;7.086;2022-11-15T16:51:19;15.60;99.90
15765;DHT22;7983;50.744;7.086;2022-11-15T16:53:45;15.60;99.90
15765;DHT22;7983;50.744;7.086;2022-11-15T16:58:54;15.60;99.90
15765;DHT22;7983;50.744;7.086;2022-11-15T17:01:28;15.60;99.90
15765;DHT22;7983;50.744;7.086;2022-11-15T17:03:54;15.60;99.90
15765;DHT22;7983;50.744;7.086;2022-11-15T17:06:23;15.60;99.90
15765;DHT22;7983;50.744;7.086;2022-11-15T17:08:52;15.60;99.90
15765;DHT22;7983;50.744;7.086;2022-11-15T17:11:21;15.60;99.90
15765;DHT22;7983;50.744;7.086;2022-11-15T17:13:49;15.60;99.90
15765;DHT22;7983;50.744;7.086;2022-11-15T17:16:17;15.50;99.90
15765;DHT22;7983;50.744;7.086;2022-11-15T17:18:43;15.50;99.90
15765;DHT22;7983;50.744;7.086;2022-11-15T17:21:20;15.50;99.90
15765;DHT22;7983;50.744;7.086;2022-11-15T17:23:47;15.50;99.90
15765;DHT22;7983;50.744;7.086;2022-11-15T17:26:14;15.50;99.90
15765;DHT22;7983;50.744;7.086;2022-11-15T17:28:40;15.50;99.90
15765;DHT22;7983;50.744;7.086;2022-11-15T17:31:10;15.50;99.90
15765;DHT22;7983;50.744;7.086;2022-11-15T17:33:37;15.50;99.90
15765;DHT22;7983;50.744;7.086;2022-11-15T17:36:05;15.50;99.90
15765;DHT22;7983;50.744;7.086;2022-11-15T17:38:31;15.50;99.90
15765;DHT22;7983;50.744;7.086;2022-11-15T17:41:01;15.40;99.90
15765;DHT22;7983;50.744;7.086;2022-11-15T17:43:29;15.50;99.90
15765;DHT22;7983;50.744;7.086;2022-11-15T17:45:58;15.40;99.90
15765;DHT22;7983;50.744;7.086;2022-11-15T17:48:28;15.40;99.90
15765;DHT22;7983;50.744;7.086;2022-11-15T17:51:02;15.40;99.90
15765;DHT22;7983;50.744;7.086;2022-11-15T17:53:37;15.40;99.90
15765;DHT22;7983;50.744;7.086;2022-11-15T17:56:04;15.40;99.90
15765;DHT22;7983;50.744;7.086;2022-11-15T17:58:33;15.40;99.90
15765;DHT22;7983;50.744;7.086;2022-11-15T18:03:40;15.30;99.90
15765;DHT22;7983;50.744;7.086;2022-11-15T18:06:07;15.20;99.90
15765;DHT22;7983;50.744;7.086;2022-11-15T18:08:37;15.20;99.90
15765;DHT22;7983;50.744;7.086;2022-11-15T18:11:26;15.10;99.90
15765;DHT22;7983;50.744;7.086;2022-11-15T18:13:54;15.00;99.90
15765;DHT22;7983;50.744;7.086;2022-11-15T18:16:22;15.00;99.90
15765;DHT22;7983;50.744;7.086;2022-11-15T18:18:52;14.90;99.90
15765;DHT22;7983;50.744;7.086;2022-11-15T18:21:23;14.90;99.90